Time,TemperatureF,DewpointF,PressureIn,WindDirection,WindDirectionDegrees,WindSpeedMPH,WindSpeedGustMPH,Humidity,HourlyPrecipIn,Conditions,Clouds,dailyrainin,SolarRadiationWatts/m^2,SoftwareType,DateUTC
2013-01-23 00:12:00,17.0,15.0,-100.00,NNW,342,0.0,3.0,91,0.00,,,-99.99,0.000000,,2013-01-23 08:12:00,
2013-01-23 00:22:00,17.0,15.0,-100.00,NNW,342,0.0,3.0,91,0.00,,,-99.99,0.000000,,2013-01-23 08:22:00,
2013-01-23 00:32:00,17.0,15.0,-100.00,NNW,342,0.0,3.0,91,0.00,,,-99.99,0.000000,,2013-01-23 08:32:00,
2013-01-23 00:42:00,17.0,15.0,-100.00,NNW,342,0.0,3.0,91,0.00,,,-99.99,0.000000,,2013-01-23 08:42:00,
2013-01-23 01:12:00,18.0,16.0,-100.00,North,7,1.0,4.0,92,0.00,,,0.00,0.000000,,2013-01-23 09:12:00,
2013-01-23 01:22:00,18.0,16.0,-100.00,North,7,1.0,4.0,92,0.00,,,0.00,0.000000,,2013-01-23 09:22:00,
2013-01-23 01:32:00,18.0,16.0,-100.00,North,7,1.0,4.0,92,0.00,,,0.00,0.000000,,2013-01-23 09:32:00,
2013-01-23 01:43:00,18.0,16.0,-100.00,North,7,1.0,4.0,92,0.00,,,0.00,0.000000,,2013-01-23 09:43:00,
2013-01-23 02:12:00,19.0,17.0,-100.00,WNW,293,0.0,4.0,92,0.00,,,-99.99,0.000000,,2013-01-23 10:12:00,
2013-01-23 02:22:00,19.0,17.0,-100.00,WNW,293,0.0,4.0,92,0.00,,,-99.99,0.000000,,2013-01-23 10:22:00,
2013-01-23 02:32:00,19.0,17.0,-100.00,WNW,293,0.0,4.0,92,0.00,,,-99.99,0.000000,,2013-01-23 10:32:00,
2013-01-23 02:42:00,19.0,17.0,-100.00,WNW,293,0.0,4.0,92,0.00,,,-99.99,0.000000,,2013-01-23 10:42:00,
2013-01-23 03:12:00,20.0,18.0,-100.00,NNW,332,0.0,4.0,92,0.00,,,0.00,0.000000,,2013-01-23 11:12:00,
2013-01-23 03:22:00,20.0,18.0,-100.00,NNW,332,0.0,4.0,92,0.00,,,0.00,0.000000,,2013-01-23 11:22:00,
2013-01-23 03:33:00,20.0,18.0,-100.00,NNW,332,0.0,4.0,92,0.00,,,0.00,0.000000,,2013-01-23 11:33:00,
2013-01-23 03:42:00,20.0,18.0,-100.00,NNW,332,0.0,4.0,92,0.00,,,0.00,0.000000,,2013-01-23 11:42:00,
2013-01-23 04:12:00,20.0,18.0,-100.00,NW,317,0.0,5.0,92,0.00,,,0.00,0.000000,,2013-01-23 12:12:00,
2013-01-23 04:22:00,20.0,18.0,-100.00,NW,317,0.0,5.0,92,0.00,,,0.00,0.000000,,2013-01-23 12:22:00,
2013-01-23 04:33:00,20.0,18.0,-100.00,NW,317,0.0,5.0,92,0.00,,,0.00,0.000000,,2013-01-23 12:33:00,
2013-01-23 04:42:00,20.0,18.0,-100.00,NW,317,0.0,5.0,92,0.00,,,0.00,0.000000,,2013-01-23 12:42:00,
2013-01-23 05:12:00,22.0,20.0,-100.00,NNW,331,0.0,3.0,92,0.00,,,0.00,0.000000,,2013-01-23 13:12:00,
2013-01-23 05:23:00,22.0,20.0,-100.00,NNW,331,0.0,3.0,92,0.00,,,0.00,0.000000,,2013-01-23 13:23:00,
2013-01-23 05:33:00,22.0,20.0,-100.00,NNW,331,0.0,3.0,92,0.00,,,0.00,0.000000,,2013-01-23 13:33:00,
2013-01-23 05:42:00,22.0,20.0,-100.00,NNW,331,0.0,3.0,92,0.00,,,0.00,0.000000,,2013-01-23 13:42:00,
2013-01-23 07:12:00,22.0,20.0,-100.00,North,1,1.0,4.0,93,-99.99,,,0.00,0.000000,,2013-01-23 15:12:00,
2013-01-23 07:22:00,22.0,20.0,-100.00,North,1,1.0,4.0,93,-99.99,,,0.00,0.000000,,2013-01-23 15:22:00,
2013-01-23 07:33:00,22.0,20.0,-100.00,North,1,1.0,4.0,93,-99.99,,,0.00,0.000000,,2013-01-23 15:33:00,
2013-01-23 07:43:00,22.0,20.0,-100.00,North,1,1.0,4.0,93,-99.99,,,0.00,0.000000,,2013-01-23 15:43:00,
2013-01-23 08:03:00,23.0,21.0,-100.00,NNW,347,3.0,5.0,93,0.00,,,0.00,0.000000,,2013-01-23 16:03:00,
2013-01-23 08:12:00,23.0,21.0,-100.00,NNW,347,3.0,5.0,93,0.00,,,0.00,0.000000,,2013-01-23 16:12:00,
2013-01-23 08:22:00,23.0,21.0,-100.00,NNW,347,3.0,5.0,93,0.00,,,0.00,0.000000,,2013-01-23 16:22:00,
2013-01-23 08:32:00,23.0,21.0,-100.00,NNW,347,3.0,5.0,93,0.00,,,0.00,0.000000,,2013-01-23 16:32:00,
2013-01-23 08:42:00,23.0,21.0,-100.00,NNW,347,3.0,5.0,93,0.00,,,0.00,0.000000,,2013-01-23 16:42:00,
2013-01-23 09:12:00,25.0,23.0,-100.00,ENE,57,5.0,8.0,93,0.00,,,0.00,0.000000,,2013-01-23 17:12:00,
2013-01-23 09:22:00,25.0,23.0,-100.00,ENE,57,5.0,8.0,93,0.00,,,0.00,0.000000,,2013-01-23 17:22:00,
2013-01-23 09:33:00,25.0,23.0,-100.00,ENE,57,5.0,8.0,93,0.00,,,0.00,0.000000,,2013-01-23 17:33:00,
2013-01-23 09:42:00,25.0,23.0,-100.00,ENE,57,5.0,8.0,93,0.00,,,0.00,0.000000,,2013-01-23 17:42:00,
2013-01-23 10:12:00,27.0,24.0,-100.00,NNW,338,0.0,4.0,89,0.00,,,0.00,0.000000,,2013-01-23 18:12:00,
2013-01-23 10:23:00,27.0,24.0,-100.00,NNW,338,0.0,4.0,89,0.00,,,0.00,0.000000,,2013-01-23 18:23:00,
2013-01-23 10:33:00,27.0,24.0,-100.00,NNW,338,0.0,4.0,89,0.00,,,0.00,0.000000,,2013-01-23 18:33:00,
2013-01-23 11:12:00,28.0,25.0,-100.00,WNW,295,2.0,5.0,88,0.00,,,0.00,5.000000,,2013-01-23 19:12:00,
2013-01-23 11:22:00,28.0,25.0,-100.00,WNW,295,2.0,5.0,88,0.00,,,0.00,5.000000,,2013-01-23 19:22:00,
2013-01-23 11:42:00,28.0,25.0,-100.00,WNW,295,2.0,5.0,88,0.00,,,0.00,5.000000,,2013-01-23 19:42:00,
2013-01-23 12:12:00,29.0,25.0,-100.00,WNW,303,4.0,6.0,86,0.00,,,0.00,28.000000,,2013-01-23 20:12:00,
2013-01-23 12:23:00,29.0,25.0,-100.00,WNW,303,4.0,6.0,86,0.00,,,0.00,28.000000,,2013-01-23 20:23:00,
2013-01-23 12:32:00,29.0,25.0,-100.00,WNW,303,4.0,6.0,86,0.00,,,0.00,28.000000,,2013-01-23 20:32:00,
2013-01-23 12:42:00,29.0,25.0,-100.00,WNW,303,4.0,6.0,86,0.00,,,0.00,28.000000,,2013-01-23 20:42:00,
2013-01-23 13:12:00,29.0,26.0,-100.00,NW,320,3.0,8.0,88,0.00,,,0.00,32.000000,,2013-01-23 21:12:00,
2013-01-23 13:22:00,29.0,26.0,-100.00,NW,320,3.0,8.0,88,0.00,,,0.00,32.000000,,2013-01-23 21:22:00,
2013-01-23 13:33:00,29.0,26.0,-100.00,NW,320,3.0,8.0,88,0.00,,,0.00,32.000000,,2013-01-23 21:33:00,
2013-01-23 13:42:00,29.0,26.0,-100.00,NW,320,3.0,8.0,88,0.00,,,0.00,32.000000,,2013-01-23 21:42:00,
2013-01-23 14:12:00,30.0,26.0,-100.00,NNW,345,0.0,6.0,86,0.00,,,-99.99,26.000000,,2013-01-23 22:12:00,
2013-01-23 14:22:00,30.0,26.0,-100.00,NNW,345,0.0,6.0,86,0.00,,,-99.99,26.000000,,2013-01-23 22:22:00,
2013-01-23 14:33:00,30.0,26.0,-100.00,NNW,345,0.0,6.0,86,0.00,,,-99.99,26.000000,,2013-01-23 22:33:00,
2013-01-23 15:12:00,29.0,26.0,-100.00,NNW,345,1.0,5.0,88,-99.99,,,0.00,22.000000,,2013-01-23 23:12:00,
2013-01-23 15:22:00,29.0,26.0,-100.00,NNW,345,1.0,5.0,88,-99.99,,,0.00,22.000000,,2013-01-23 23:22:00,
2013-01-23 15:33:00,29.0,26.0,-100.00,NNW,345,1.0,5.0,88,-99.99,,,0.00,22.000000,,2013-01-23 23:33:00,
2013-01-23 15:42:00,29.0,26.0,-100.00,NNW,345,1.0,5.0,88,-99.99,,,0.00,22.000000,,2013-01-23 23:42:00,
2013-01-23 16:12:00,28.0,25.0,-100.00,East,90,0.0,6.0,89,0.00,,,0.00,4.000000,,2013-01-24 00:12:00,
2013-01-23 16:22:00,28.0,25.0,-100.00,East,90,0.0,6.0,89,0.00,,,0.00,4.000000,,2013-01-24 00:22:00,
2013-01-23 16:32:00,28.0,25.0,-100.00,East,90,0.0,6.0,89,0.00,,,0.00,4.000000,,2013-01-24 00:32:00,
2013-01-23 16:42:00,28.0,25.0,-100.00,East,90,0.0,6.0,89,0.00,,,0.00,4.000000,,2013-01-24 00:42:00,
2013-01-23 17:12:00,26.0,24.0,-100.00,ENE,71,0.0,3.0,92,0.00,,,0.00,0.000000,,2013-01-24 01:12:00,
2013-01-23 17:22:00,26.0,24.0,-100.00,ENE,71,0.0,3.0,92,0.00,,,0.00,0.000000,,2013-01-24 01:22:00,
2013-01-23 17:33:00,26.0,24.0,-100.00,ENE,71,0.0,3.0,92,0.00,,,0.00,0.000000,,2013-01-24 01:33:00,
2013-01-23 17:42:00,26.0,24.0,-100.00,ENE,71,0.0,3.0,92,0.00,,,0.00,0.000000,,2013-01-24 01:42:00,
2013-01-23 18:12:00,25.0,24.0,-100.00,NNW,347,0.0,0.0,94,0.00,,,-99.99,0.000000,,2013-01-24 02:12:00,
2013-01-23 18:22:00,25.0,24.0,-100.00,NNW,347,0.0,0.0,94,0.00,,,-99.99,0.000000,,2013-01-24 02:22:00,
2013-01-23 18:32:00,25.0,24.0,-100.00,NNW,347,0.0,0.0,94,0.00,,,-99.99,0.000000,,2013-01-24 02:32:00,
2013-01-23 18:42:00,25.0,24.0,-100.00,NNW,347,0.0,0.0,94,0.00,,,-99.99,0.000000,,2013-01-24 02:42:00,
2013-01-23 19:12:00,25.0,23.0,-100.00,NNW,334,0.0,3.0,93,0.00,,,0.00,0.000000,,2013-01-24 03:12:00,
2013-01-23 19:22:00,25.0,23.0,-100.00,NNW,334,0.0,3.0,93,0.00,,,0.00,0.000000,,2013-01-24 03:22:00,
2013-01-23 19:32:00,25.0,23.0,-100.00,NNW,334,0.0,3.0,93,0.00,,,0.00,0.000000,,2013-01-24 03:32:00,
2013-01-23 19:42:00,25.0,23.0,-100.00,NNW,334,0.0,3.0,93,0.00,,,0.00,0.000000,,2013-01-24 03:42:00,
2013-01-23 20:12:00,24.0,22.0,-100.00,West,276,2.0,4.0,92,0.00,,,0.00,0.000000,,2013-01-24 04:12:00,
2013-01-23 20:22:00,24.0,22.0,-100.00,West,276,2.0,4.0,92,0.00,,,0.00,0.000000,,2013-01-24 04:22:00,
2013-01-23 20:32:00,24.0,22.0,-100.00,West,276,2.0,4.0,92,0.00,,,0.00,0.000000,,2013-01-24 04:32:00,
2013-01-23 20:42:00,24.0,22.0,-100.00,West,276,2.0,4.0,92,0.00,,,0.00,0.000000,,2013-01-24 04:42:00,
2013-01-23 21:12:00,23.0,22.0,-100.00,WNW,291,2.0,5.0,95,0.00,,,0.00,0.000000,,2013-01-24 05:12:00,
2013-01-23 21:22:00,23.0,22.0,-100.00,WNW,291,2.0,5.0,95,0.00,,,0.00,0.000000,,2013-01-24 05:22:00,
2013-01-23 21:32:00,23.0,22.0,-100.00,WNW,291,2.0,5.0,95,0.00,,,0.00,0.000000,,2013-01-24 05:32:00,
2013-01-23 21:42:00,23.0,22.0,-100.00,WNW,291,2.0,5.0,95,0.00,,,0.00,0.000000,,2013-01-24 05:42:00,
2013-01-23 22:12:00,21.0,19.0,-100.00,NW,323,1.0,5.0,93,0.00,,,-99.99,0.000000,,2013-01-24 06:12:00,
2013-01-23 22:22:00,21.0,19.0,-100.00,NW,323,1.0,5.0,93,0.00,,,-99.99,0.000000,,2013-01-24 06:22:00,
2013-01-23 22:32:00,21.0,19.0,-100.00,NW,323,1.0,5.0,93,0.00,,,-99.99,0.000000,,2013-01-24 06:32:00,
2013-01-23 22:42:00,21.0,19.0,-100.00,NW,323,1.0,5.0,93,0.00,,,-99.99,0.000000,,2013-01-24 06:42:00,
2013-01-23 23:12:00,16.0,14.0,-100.00,SSE,158,0.0,5.0,92,0.00,,,0.00,0.000000,,2013-01-24 07:12:00,
2013-01-23 23:22:00,16.0,14.0,-100.00,SSE,158,0.0,5.0,92,0.00,,,0.00,0.000000,,2013-01-24 07:22:00,
2013-01-23 23:32:00,16.0,14.0,-100.00,SSE,158,0.0,5.0,92,0.00,,,0.00,0.000000,,2013-01-24 07:32:00,
2013-01-23 23:42:00,16.0,14.0,-100.00,SSE,158,0.0,5.0,92,0.00,,,0.00,0.000000,,2013-01-24 07:42:00,